KMLT

Millinocket Municipal Airport

Millinocket, Maine, USA
METAR KMLT 130953Z AUTO 00000KT 10SM CLR M20/M23 A3042 RMK AO2 SLP317 I1000 T12001233
Observed Flight Rules
Dec-13 @ 09:53 UTC (58 minutes ago) Visual Flight Rules
Visibility Clouds
10 miles
  • Clear skies
Temperatures Readings
Current -20°C / -4°F
Dewpoint -23°C / -9°F
Humidity 77%
Altimeter 30.42" Hg
Pressure 1031.7 hPa
Elevation 123
METAR KMLT 130953Z AUTO 00000KT 10SM CLR M20/M23 A3042 RMK AO2 SLP317 I1000 T12001233
Observed Flight Rules
Dec-13 @ 09:53 UTC
(58 minutes ago)
VFR
Clouds
  • Clear skies
Temperature Dewpoint
-20°C / -4°F -23°C / -9°F
Humidity Altimeter Pressure
77% 30.42" Hg 1031.7 hPa